IXT weather

Pasighat Airport
Pasighat, Arunachal Pradesh, India

Public forecast

Using degrees Celsius for public forecast. Weather courtesy of forecast.io.

METAR (pilot weather report)

Closest report is Dibrugarh Airport, 38.8 nm (71.9 km) SSW. Retrieved 2019/04/21 10:30 UTC (11 minutes ago):

VEMN 211030Z 01007KT 5000 HZ FEW025 32/18 Q1006 NO SIG

TAF (pilot weather forecast)

Closest forecast is Jorhat Airport, 101.2 nm (187.5 km) SW. Retrieved 2019/04/21 06:30 UTC (4 hours ago):

TAF VEJT 210330Z 2106/2118 02005KT 6000 SCT025 SCT090 TEMPO 2108/2111 25010G20KT 3000 TSRA SCT025 FEW030CB BKN090 TEMPO 2115/2118 VRB02KT 4000 RA SCT025 FEW030TCU BKN090